createdAt,value
2023-02-16T00:00:00.621Z,101121.38
2023-02-16T00:05:02.195Z,101121.56
2023-02-16T00:10:03.933Z,101131.00
2023-02-16T00:15:18.547Z,101121.88
2023-02-16T00:20:20.214Z,101124.28
2023-02-16T00:25:21.776Z,101123.66
2023-02-16T00:30:23.552Z,101121.59
2023-02-16T00:35:25.259Z,101122.91
2023-02-16T00:40:26.810Z,101129.94
2023-02-16T00:45:28.753Z,101123.84
2023-02-16T00:50:32.921Z,101113.78
2023-02-16T00:55:35.497Z,101120.69
2023-02-16T01:00:43.311Z,101122.56
2023-02-16T01:05:45.054Z,101120.59
2023-02-16T01:11:07.235Z,101111.13
2023-02-16T01:16:13.333Z,101118.47
2023-02-16T01:21:15.064Z,101113.00
2023-02-16T01:26:18.945Z,101100.09
2023-02-16T01:31:21.320Z,101097.28
2023-02-16T01:36:26.836Z,101100.81
2023-02-16T01:41:44.189Z,101104.31
2023-02-16T01:47:05.823Z,101099.16
2023-02-16T01:52:20.514Z,101092.88
2023-02-16T01:57:27.699Z,101100.06
2023-02-16T02:02:38.443Z,101093.44
2023-02-16T02:07:57.879Z,101078.31
2023-02-16T02:13:06.805Z,101079.00
2023-02-16T02:18:09.301Z,101076.25
2023-02-16T02:23:32.215Z,101087.69
2023-02-16T02:28:45.425Z,101090.59
2023-02-16T02:33:59.159Z,101094.91
2023-02-16T02:39:13.077Z,101091.75
2023-02-16T02:44:18.824Z,101080.56
2023-02-16T02:49:20.461Z,101081.78
2023-02-16T02:54:43.866Z,101074.34
2023-02-16T03:00:16.590Z,101069.13
2023-02-16T03:05:19.278Z,101067.28
2023-02-16T03:10:46.785Z,101063.47
2023-02-16T03:15:49.695Z,101073.00
2023-02-16T03:21:10.310Z,101076.06
2023-02-16T03:26:30.697Z,101076.94
2023-02-16T03:31:38.552Z,101075.16
2023-02-16T03:36:43.632Z,101071.09
2023-02-16T03:41:51.136Z,101076.03
2023-02-16T03:46:52.749Z,101086.81
2023-02-16T03:51:54.309Z,101090.72
2023-02-16T03:56:55.888Z,101097.72
2023-02-16T04:01:57.491Z,101077.06
2023-02-16T04:06:59.088Z,101071.59
2023-02-16T04:12:19.056Z,101074.06
2023-02-16T04:17:20.645Z,101089.00
2023-02-16T04:22:22.324Z,101069.38
2023-02-16T04:27:23.928Z,101074.56
2023-02-16T04:32:25.504Z,101081.50
2023-02-16T04:37:27.225Z,101068.34
2023-02-16T04:42:28.931Z,101065.03
2023-02-16T04:47:30.493Z,101063.56
2023-02-16T04:52:32.381Z,101063.69
2023-02-16T04:57:34.019Z,101059.81
2023-02-16T05:02:35.629Z,101060.72
2023-02-16T05:07:37.258Z,101067.72
2023-02-16T05:12:57.233Z,101055.38
2023-02-16T05:17:58.829Z,101069.16
2023-02-16T05:23:00.439Z,101072.41
2023-02-16T05:28:02.060Z,101071.41
2023-02-16T05:33:03.750Z,101070.38
2023-02-16T05:38:05.363Z,101080.63
2023-02-16T05:43:07.093Z,101080.66
2023-02-16T05:48:08.637Z,101082.97
2023-02-16T05:53:10.192Z,101083.84
2023-02-16T05:58:11.804Z,101088.44
2023-02-16T06:03:13.388Z,101089.50
2023-02-16T06:08:14.973Z,101102.28
2023-02-16T06:13:17.086Z,101090.91
2023-02-16T06:18:18.651Z,101090.47
2023-02-16T06:23:20.346Z,101092.00
2023-02-16T06:28:21.937Z,101082.72
2023-02-16T06:33:23.511Z,101094.16
2023-02-16T06:38:25.105Z,101089.00
2023-02-16T06:43:27.687Z,101093.78
2023-02-16T06:48:30.553Z,101092.56
2023-02-16T06:53:32.124Z,101094.56
2023-02-16T06:58:33.691Z,101090.66
2023-02-16T07:03:35.434Z,101085.75
2023-02-16T07:08:37.109Z,101093.69
2023-02-16T07:13:38.761Z,101078.75
2023-02-16T07:18:40.512Z,101064.78
2023-02-16T07:23:42.808Z,101074.16
2023-02-16T07:28:44.457Z,101068.34
2023-02-16T07:33:46.184Z,101074.25
2023-02-16T07:38:47.757Z,101079.81
2023-02-16T07:43:49.371Z,101088.25
2023-02-16T07:48:50.988Z,101092.13
2023-02-16T07:53:52.618Z,101096.59
2023-02-16T07:58:55.298Z,101096.47
2023-02-16T08:03:57.168Z,101091.91
2023-02-16T08:08:58.709Z,101095.25
2023-02-16T08:14:00.564Z,101092.50
2023-02-16T08:19:03.843Z,101100.28
2023-02-16T08:24:07.611Z,101097.13
2023-02-16T08:29:13.216Z,101099.19
2023-02-16T08:34:16.800Z,101093.19
2023-02-16T08:39:20.801Z,101101.91
2023-02-16T08:44:24.305Z,101088.69
2023-02-16T08:49:25.974Z,101079.88
2023-02-16T08:54:30.703Z,101077.47
2023-02-16T08:59:33.258Z,101084.69
2023-02-16T09:04:36.700Z,101081.53
2023-02-16T09:09:39.393Z,101073.25
2023-02-16T09:14:42.056Z,101071.75
2023-02-16T09:19:44.602Z,101067.78
2023-02-16T09:24:46.567Z,101054.56
2023-02-16T09:29:49.634Z,101064.59
2023-02-16T09:34:51.289Z,101058.16
2023-02-16T09:39:52.978Z,101061.19
2023-02-16T09:45:09.840Z,101065.47
2023-02-16T09:50:52.634Z,101047.44
2023-02-16T09:56:17.630Z,101059.00
2023-02-16T10:01:19.201Z,101063.06
2023-02-16T10:06:31.003Z,101060.97
2023-02-16T10:11:48.783Z,101059.66
2023-02-16T10:17:15.239Z,101073.66
2023-02-16T10:22:25.160Z,101056.59
2023-02-16T10:27:33.203Z,101061.53
2023-02-16T10:32:44.014Z,101063.28
2023-02-16T10:38:19.976Z,101049.06
2023-02-16T10:43:32.744Z,101047.88
2023-02-16T10:48:34.568Z,101045.09
2023-02-16T10:53:53.333Z,101038.38
2023-02-16T10:58:56.611Z,101031.97
2023-02-16T11:03:58.769Z,101026.06
2023-02-16T11:09:02.995Z,101022.03
2023-02-16T11:14:25.278Z,101028.38
2023-02-16T11:19:28.834Z,101019.16
2023-02-16T11:24:37.209Z,101015.31
2023-02-16T11:29:38.800Z,101013.41
2023-02-16T11:34:45.695Z,101010.25
2023-02-16T11:39:50.957Z,101004.38
2023-02-16T11:44:54.838Z,100987.13
2023-02-16T11:50:05.287Z,100984.66
2023-02-16T11:55:24.340Z,100983.94
2023-02-16T12:00:26.586Z,100972.44
2023-02-16T12:05:43.670Z,100966.78
2023-02-16T12:10:54.447Z,100963.69
2023-02-16T12:16:15.349Z,100965.47
2023-02-16T12:21:45.426Z,100950.78
2023-02-16T12:26:53.746Z,100945.00
2023-02-16T12:32:01.323Z,100944.44
2023-02-16T12:37:31.779Z,100944.09
2023-02-16T12:42:48.327Z,100938.22
2023-02-16T12:47:54.788Z,100926.25
2023-02-16T12:53:12.314Z,100930.38
2023-02-16T12:58:14.848Z,100924.34
2023-02-16T13:03:29.060Z,100922.16
2023-02-16T13:08:41.532Z,100914.53
2023-02-16T13:13:45.225Z,100916.59
2023-02-16T13:18:48.996Z,100907.25
2023-02-16T13:24:14.738Z,100913.00
2023-02-16T13:29:34.391Z,100898.66
2023-02-16T13:34:54.554Z,100900.84
2023-02-16T13:40:02.555Z,100900.38
2023-02-16T13:45:15.971Z,100901.13
2023-02-16T13:50:20.570Z,100898.56
2023-02-16T13:55:32.746Z,100897.97
2023-02-16T14:00:45.342Z,100909.59
2023-02-16T14:05:47.996Z,100897.34
2023-02-16T14:10:53.143Z,100901.59
2023-02-16T14:15:56.782Z,100912.03
2023-02-16T14:21:06.593Z,100911.31
2023-02-16T14:26:10.196Z,100915.16
2023-02-16T14:31:18.712Z,100911.63
2023-02-16T14:36:24.184Z,100912.72
2023-02-16T14:41:33.067Z,100915.63
2023-02-16T14:46:56.043Z,100919.16
2023-02-16T14:52:00.274Z,100920.59
2023-02-16T14:57:18.847Z,100918.03
2023-02-16T15:02:28.184Z,100914.19
2023-02-16T15:07:30.504Z,100908.97
2023-02-16T15:12:33.364Z,100927.75
2023-02-16T15:17:47.932Z,100920.31
2023-02-16T15:22:57.930Z,100928.31
2023-02-16T15:28:25.922Z,100910.59
2023-02-16T15:33:36.239Z,100905.13
2023-02-16T15:38:40.364Z,100894.97
2023-02-16T15:43:50.060Z,100896.75
2023-02-16T15:48:51.693Z,100905.81
2023-02-16T15:53:58.875Z,100907.25
2023-02-16T15:59:02.726Z,100901.88
2023-02-16T16:04:22.247Z,100900.41
2023-02-16T16:09:33.859Z,100901.25
2023-02-16T16:14:43.252Z,100895.94
2023-02-16T16:19:44.898Z,100906.03
2023-02-16T16:24:48.527Z,100904.34
2023-02-16T16:29:50.116Z,100893.94
2023-02-16T16:34:51.723Z,100908.13
2023-02-16T16:40:00.966Z,100901.00
2023-02-16T16:45:25.789Z,100903.81
2023-02-16T16:50:28.789Z,100897.44
2023-02-16T16:55:33.860Z,100901.41
2023-02-16T17:00:38.312Z,100905.34
2023-02-16T17:05:40.030Z,100898.22
2023-02-16T17:10:41.971Z,100891.69
2023-02-16T17:16:02.719Z,100889.56
2023-02-16T17:21:05.262Z,100899.28
2023-02-16T17:26:07.203Z,100898.53
2023-02-16T17:31:10.230Z,100896.63
2023-02-16T17:36:15.204Z,100890.88
2023-02-16T17:41:21.412Z,100895.88
2023-02-16T17:46:23.922Z,100884.53
2023-02-16T17:51:26.273Z,100889.09
2023-02-16T17:56:28.045Z,100880.88
2023-02-16T18:01:29.667Z,100879.72
2023-02-16T18:06:31.303Z,100889.41
2023-02-16T18:11:32.928Z,100881.53
2023-02-16T18:16:34.516Z,100882.09
2023-02-16T18:21:36.086Z,100888.59
2023-02-16T18:26:37.750Z,100894.63
2023-02-16T18:31:40.549Z,100893.47
2023-02-16T18:36:42.263Z,100898.88
2023-02-16T18:41:43.842Z,100902.63
2023-02-16T18:46:45.411Z,100896.84
2023-02-16T18:51:47.035Z,100890.88
2023-02-16T18:56:48.598Z,100906.84
2023-02-16T19:01:57.503Z,100894.75
2023-02-16T19:06:59.082Z,100913.81
2023-02-16T19:12:00.702Z,100915.13
2023-02-16T19:17:02.551Z,100921.69
2023-02-16T19:22:04.379Z,100926.78
2023-02-16T19:27:05.981Z,100914.69
2023-02-16T19:32:07.714Z,100904.50
2023-02-16T19:37:09.284Z,100893.41
2023-02-16T19:42:10.929Z,100891.47
2023-02-16T19:47:12.535Z,100899.09
2023-02-16T19:52:14.106Z,100889.44
2023-02-16T19:57:15.712Z,100884.00
2023-02-16T20:02:17.572Z,100895.19
2023-02-16T20:07:19.227Z,100892.63
2023-02-16T20:12:21.048Z,100890.41
2023-02-16T20:17:22.633Z,100880.47
2023-02-16T20:22:24.169Z,100893.78
2023-02-16T20:27:27.849Z,100890.91
2023-02-16T20:32:29.856Z,100882.84
2023-02-16T20:37:31.487Z,100888.34
2023-02-16T20:42:33.379Z,100884.75
2023-02-16T20:47:34.953Z,100882.19
2023-02-16T20:52:36.697Z,100879.31
2023-02-16T20:57:39.116Z,100875.38
2023-02-16T21:02:40.908Z,100885.78
2023-02-16T21:07:42.805Z,100878.34
2023-02-16T21:12:44.835Z,100872.59
2023-02-16T21:17:46.452Z,100862.81
2023-02-16T21:22:48.063Z,100857.50
2023-02-16T21:27:49.775Z,100848.97
2023-02-16T21:32:51.620Z,100846.84
2023-02-16T21:37:53.236Z,100841.84
2023-02-16T21:42:54.804Z,100841.31
2023-02-16T21:48:14.786Z,100826.84
2023-02-16T21:53:16.400Z,100823.22
2023-02-16T21:58:18.098Z,100818.44
2023-02-16T22:03:20.551Z,100818.34
2023-02-16T22:08:26.382Z,100809.16
2023-02-16T22:13:27.962Z,100811.91
2023-02-16T22:18:29.566Z,100811.28
2023-02-16T22:23:31.476Z,100807.44
2023-02-16T22:28:33.366Z,100805.72
2023-02-16T22:33:35.604Z,100799.00
2023-02-16T22:38:37.227Z,100794.13
2023-02-16T22:43:39.308Z,100791.53
2023-02-16T22:48:41.768Z,100795.38
2023-02-16T22:53:43.605Z,100786.81
2023-02-16T22:58:45.913Z,100779.69
2023-02-16T23:03:49.344Z,100756.69
2023-02-16T23:08:53.322Z,100751.00
2023-02-16T23:13:55.249Z,100740.84
2023-02-16T23:18:57.842Z,100739.69
2023-02-16T23:24:00.199Z,100744.41
2023-02-16T23:29:02.286Z,100739.09
2023-02-16T23:34:04.966Z,100732.38
2023-02-16T23:39:12.275Z,100722.59
2023-02-16T23:44:14.588Z,100720.19
2023-02-16T23:49:16.133Z,100717.53
2023-02-16T23:54:17.692Z,100713.69
2023-02-16T23:59:19.286Z,100701.72
